createdAt,value
2022-10-19T00:01:21.705Z,52.72
2022-10-19T00:03:53.187Z,53.21
2022-10-19T00:06:30.672Z,53.30
2022-10-19T00:09:03.779Z,53.19
2022-10-19T00:11:33.749Z,52.55
2022-10-19T00:14:03.474Z,52.68
2022-10-19T00:16:35.293Z,53.02
2022-10-19T00:19:06.629Z,52.71
2022-10-19T00:21:35.574Z,52.55
2022-10-19T00:24:04.152Z,52.21
2022-10-19T00:26:32.935Z,51.92
2022-10-19T00:29:01.566Z,52.17
2022-10-19T00:31:30.167Z,52.69
2022-10-19T00:33:59.160Z,52.46
2022-10-19T00:36:30.664Z,52.42
2022-10-19T00:39:00.260Z,53.21
2022-10-19T00:41:31.284Z,53.30
2022-10-19T00:44:11.622Z,52.75
2022-10-19T00:46:42.977Z,53.15
2022-10-19T00:49:15.448Z,53.11
2022-10-19T00:51:50.891Z,52.80
2022-10-19T00:54:20.209Z,53.24
2022-10-19T00:56:52.239Z,53.50
2022-10-19T00:59:23.368Z,53.90
2022-10-19T01:01:53.207Z,54.23
2022-10-19T01:04:23.471Z,53.32
2022-10-19T01:06:53.813Z,52.86
2022-10-19T01:09:22.393Z,52.96
2022-10-19T01:12:09.151Z,52.89
2022-10-19T01:14:46.693Z,52.22
2022-10-19T01:17:40.889Z,52.11
2022-10-19T01:20:28.103Z,52.14
2022-10-19T01:23:05.582Z,52.65
2022-10-19T01:25:58.018Z,52.74
2022-10-19T01:28:44.802Z,52.90
2022-10-19T01:31:45.257Z,52.57
2022-10-19T01:34:22.024Z,52.64
2022-10-19T01:37:09.488Z,53.37
2022-10-19T01:39:49.887Z,53.86
2022-10-19T01:42:29.829Z,53.75
2022-10-19T01:45:13.866Z,53.88
2022-10-19T01:48:07.800Z,54.30
2022-10-19T01:50:43.456Z,54.84
2022-10-19T01:53:13.262Z,54.70
2022-10-19T01:55:44.984Z,55.63
2022-10-19T01:58:18.581Z,55.38
2022-10-19T02:00:52.485Z,55.94
2022-10-19T02:03:23.247Z,56.00
2022-10-19T02:05:52.992Z,55.35
2022-10-19T02:08:37.858Z,55.21
2022-10-19T02:11:06.476Z,55.18
2022-10-19T02:13:37.420Z,55.05
2022-10-19T02:16:09.506Z,55.35
2022-10-19T02:18:42.413Z,55.01
2022-10-19T02:21:10.951Z,55.49
2022-10-19T02:23:39.486Z,55.32
2022-10-19T02:26:08.542Z,54.93
2022-10-19T02:28:37.564Z,54.63
2022-10-19T02:31:06.240Z,54.09
2022-10-19T02:33:34.755Z,53.80
2022-10-19T02:36:03.729Z,53.85
2022-10-19T02:38:32.277Z,53.92
2022-10-19T02:41:20.822Z,53.67
2022-10-19T02:44:00.968Z,54.02
2022-10-19T02:46:52.124Z,53.84
2022-10-19T02:49:21.429Z,54.10
2022-10-19T02:52:14.443Z,53.83
2022-10-19T02:54:44.729Z,53.93
2022-10-19T02:57:24.645Z,53.37
2022-10-19T02:59:53.089Z,53.59
2022-10-19T03:02:21.432Z,53.27
2022-10-19T03:04:49.829Z,53.56
2022-10-19T03:07:19.813Z,53.58
2022-10-19T03:09:48.615Z,53.29
2022-10-19T03:12:17.183Z,53.60
2022-10-19T03:14:45.466Z,53.47
2022-10-19T03:17:13.931Z,52.90
2022-10-19T03:19:42.287Z,52.87
2022-10-19T03:22:10.646Z,53.51
2022-10-19T03:24:39.027Z,53.78
2022-10-19T03:27:07.414Z,54.28
2022-10-19T03:29:35.867Z,53.82
2022-10-19T03:32:05.099Z,54.00
2022-10-19T03:34:33.511Z,54.26
2022-10-19T03:37:01.843Z,54.33
2022-10-19T03:39:30.316Z,53.65
2022-10-19T03:41:58.621Z,53.69
2022-10-19T03:44:27.074Z,53.88
2022-10-19T03:46:55.483Z,53.70
2022-10-19T03:49:24.606Z,54.16
2022-10-19T03:51:52.948Z,54.03
2022-10-19T03:54:23.712Z,53.81
2022-10-19T03:56:55.581Z,53.95
2022-10-19T03:59:24.287Z,54.06
2022-10-19T04:01:52.611Z,54.25
2022-10-19T04:04:20.991Z,53.66
2022-10-19T04:06:50.473Z,53.93
2022-10-19T04:09:20.791Z,54.48
2022-10-19T04:11:49.893Z,54.63
2022-10-19T04:14:31.651Z,54.80
2022-10-19T04:17:02.192Z,54.75
2022-10-19T04:19:31.214Z,55.06
2022-10-19T04:21:59.808Z,55.03
2022-10-19T04:24:28.808Z,54.21
2022-10-19T04:26:57.258Z,54.68
2022-10-19T04:29:29.549Z,54.74
2022-10-19T04:31:59.545Z,54.12
2022-10-19T04:34:27.951Z,54.51
2022-10-19T04:36:59.325Z,55.02
2022-10-19T04:39:27.853Z,54.81
2022-10-19T04:41:56.209Z,54.82
2022-10-19T04:46:57.824Z,54.47
2022-10-19T04:49:26.166Z,54.70
2022-10-19T04:51:54.506Z,54.32
2022-10-19T04:54:22.876Z,54.42
2022-10-19T04:56:51.309Z,54.13
2022-10-19T04:59:19.783Z,54.22
2022-10-19T05:01:48.114Z,54.44
2022-10-19T05:04:16.460Z,54.33
2022-10-19T05:06:44.835Z,54.50
2022-10-19T05:09:13.296Z,54.38
2022-10-19T05:11:41.689Z,54.04
2022-10-19T05:14:10.262Z,54.18
2022-10-19T05:16:38.626Z,54.21
2022-10-19T05:19:07.092Z,54.13
2022-10-19T05:21:35.392Z,54.54
2022-10-19T05:24:03.965Z,53.99
2022-10-19T05:26:32.430Z,53.79
2022-10-19T05:29:04.690Z,54.08
2022-10-19T05:31:34.447Z,54.05
2022-10-19T05:34:04.085Z,54.29
2022-10-19T05:36:35.424Z,54.23
2022-10-19T05:39:15.691Z,54.09
2022-10-19T05:41:45.067Z,53.83
2022-10-19T05:44:16.539Z,54.03
2022-10-19T05:46:45.136Z,53.67
2022-10-19T05:49:14.707Z,53.71
2022-10-19T05:51:43.736Z,53.82
2022-10-19T05:54:13.304Z,53.97
2022-10-19T05:56:42.428Z,53.88
2022-10-19T05:59:15.688Z,54.30
2022-10-19T06:01:45.041Z,53.89
2022-10-19T06:04:14.998Z,54.04
2022-10-19T06:06:43.636Z,53.80
2022-10-19T06:09:12.271Z,53.94
2022-10-19T06:11:42.229Z,54.13
2022-10-19T06:14:15.384Z,53.98
2022-10-19T06:16:45.766Z,54.17
2022-10-19T06:19:14.284Z,54.35
2022-10-19T06:21:45.831Z,54.19
2022-10-19T06:24:14.736Z,54.06
2022-10-19T06:26:43.140Z,54.03
2022-10-19T06:29:11.569Z,53.81
2022-10-19T06:31:39.954Z,53.89
2022-10-19T06:34:09.654Z,53.96
2022-10-19T06:36:38.425Z,54.21
2022-10-19T06:39:06.876Z,54.33
2022-10-19T06:41:35.337Z,54.73
2022-10-19T06:44:05.762Z,54.56
2022-10-19T06:46:34.319Z,54.59
2022-10-19T06:49:03.155Z,55.28
2022-10-19T06:51:34.946Z,54.94
2022-10-19T06:54:03.447Z,54.95
2022-10-19T06:56:32.074Z,54.61
2022-10-19T06:59:00.556Z,54.40
2022-10-19T07:01:29.147Z,55.02
2022-10-19T07:03:57.589Z,54.92
2022-10-19T07:06:27.753Z,54.60
2022-10-19T07:08:56.157Z,54.51
2022-10-19T07:11:24.561Z,54.38
2022-10-19T07:13:53.333Z,54.19
2022-10-19T07:16:22.636Z,54.07
2022-10-19T07:18:52.589Z,54.10
2022-10-19T07:21:22.768Z,53.92
2022-10-19T07:23:52.278Z,54.11
2022-10-19T07:26:27.478Z,54.23
2022-10-19T07:28:57.505Z,54.16
2022-10-19T07:31:29.346Z,54.30
2022-10-19T07:34:00.106Z,54.00
2022-10-19T07:36:30.578Z,54.18
2022-10-19T07:39:00.543Z,54.71
2022-10-19T07:41:28.935Z,54.64
2022-10-19T07:43:58.029Z,54.28
2022-10-19T07:46:33.311Z,53.80
2022-10-19T07:49:01.913Z,54.83
2022-10-19T07:51:30.715Z,54.76
2022-10-19T07:53:59.468Z,54.63
2022-10-19T07:56:28.680Z,54.77
2022-10-19T07:58:59.620Z,54.11
2022-10-19T08:01:38.103Z,54.10
2022-10-19T08:04:49.040Z,54.25
2022-10-19T08:06:55.716Z,54.50
2022-10-19T08:09:50.765Z,54.53
2022-10-19T08:12:15.343Z,54.82
2022-10-19T08:14:44.070Z,54.50
2022-10-19T08:17:16.504Z,54.83
2022-10-19T08:19:45.875Z,54.86
2022-10-19T08:22:14.260Z,54.23
2022-10-19T08:24:42.944Z,54.09
2022-10-19T08:27:12.371Z,54.29
2022-10-19T08:29:40.816Z,54.45
2022-10-19T08:32:09.287Z,54.14
2022-10-19T08:34:37.870Z,54.33
2022-10-19T08:37:14.756Z,53.73
2022-10-19T08:39:54.563Z,54.15
2022-10-19T08:42:41.377Z,54.76
2022-10-19T08:45:44.859Z,54.31
2022-10-19T08:48:24.216Z,55.07
2022-10-19T08:50:53.140Z,54.35
2022-10-19T08:53:30.500Z,53.87
2022-10-19T08:56:51.357Z,53.75
2022-10-19T08:59:42.205Z,53.29
2022-10-19T09:02:18.318Z,52.86
2022-10-19T09:05:14.221Z,53.27
2022-10-19T09:07:45.792Z,52.81
2022-10-19T09:10:14.694Z,52.66
2022-10-19T09:13:04.211Z,53.02
2022-10-19T09:15:44.381Z,52.94
2022-10-19T09:18:28.304Z,52.27
2022-10-19T09:21:47.063Z,52.01
2022-10-19T09:24:29.732Z,51.96
2022-10-19T09:27:01.851Z,52.05
2022-10-19T09:29:31.205Z,51.70
2022-10-19T09:32:01.541Z,51.60
2022-10-19T09:34:34.622Z,50.90
2022-10-19T09:37:03.642Z,50.79
2022-10-19T09:39:32.522Z,50.85
2022-10-19T09:42:13.172Z,50.81
2022-10-19T09:44:41.827Z,50.72
2022-10-19T09:47:33.511Z,50.72
2022-10-19T09:50:09.175Z,50.60
2022-10-19T09:52:39.797Z,50.45
2022-10-19T09:55:14.017Z,50.53
2022-10-19T09:57:44.266Z,50.52
2022-10-19T10:00:37.788Z,50.17
2022-10-19T10:03:07.557Z,50.67
2022-10-19T10:05:41.178Z,50.09
2022-10-19T10:08:15.772Z,49.64
2022-10-19T10:10:54.156Z,49.84
2022-10-19T10:13:25.602Z,49.26
2022-10-19T10:16:00.361Z,49.13
2022-10-19T10:18:29.780Z,49.22
2022-10-19T10:21:00.384Z,48.78
2022-10-19T10:23:36.174Z,48.89
2022-10-19T10:26:15.226Z,48.69
2022-10-19T10:28:49.245Z,48.93
2022-10-19T10:31:29.961Z,48.36
2022-10-19T10:34:12.314Z,47.93
2022-10-19T10:36:53.917Z,48.26
2022-10-19T10:39:24.722Z,47.88
2022-10-19T10:41:53.685Z,47.98
2022-10-19T10:44:30.677Z,47.73
2022-10-19T10:47:01.096Z,47.33
2022-10-19T10:49:36.805Z,47.11
2022-10-19T10:52:15.550Z,47.28
2022-10-19T10:55:02.349Z,46.65
2022-10-19T10:57:37.541Z,46.40
2022-10-19T11:00:16.728Z,46.63
2022-10-19T11:02:58.962Z,45.86
2022-10-19T11:05:39.034Z,46.41
2022-10-19T11:08:19.990Z,46.34
2022-10-19T11:11:13.945Z,45.90
2022-10-19T11:13:56.680Z,45.85
2022-10-19T11:16:31.304Z,45.99
2022-10-19T11:19:16.598Z,46.09
2022-10-19T11:22:33.243Z,45.83
2022-10-19T11:25:25.032Z,45.83
2022-10-19T11:28:22.149Z,45.28
2022-10-19T11:31:13.706Z,45.25
2022-10-19T11:33:48.786Z,45.40
2022-10-19T11:36:35.302Z,44.78
2022-10-19T11:39:25.721Z,45.40
2022-10-19T11:42:19.296Z,45.17
2022-10-19T11:44:56.799Z,45.30
2022-10-19T11:48:01.610Z,44.78
2022-10-19T11:50:54.065Z,44.92
2022-10-19T11:53:45.720Z,45.78
2022-10-19T11:56:39.183Z,44.94
2022-10-19T11:59:22.278Z,44.43
2022-10-19T12:02:19.200Z,44.75
2022-10-19T12:05:11.203Z,44.54
2022-10-19T12:08:09.772Z,44.59
2022-10-19T12:10:43.324Z,44.14
2022-10-19T12:13:44.377Z,43.40
2022-10-19T12:16:14.392Z,42.89
2022-10-19T12:18:50.644Z,42.20
2022-10-19T12:21:31.538Z,42.23
2022-10-19T12:24:04.744Z,41.79
2022-10-19T12:26:36.549Z,41.53
2022-10-19T12:29:29.496Z,41.08
2022-10-19T12:32:00.882Z,41.21
2022-10-19T12:34:32.554Z,40.68
2022-10-19T12:37:12.658Z,40.66
2022-10-19T12:40:05.624Z,39.92
2022-10-19T12:42:58.155Z,40.65
2022-10-19T12:45:34.788Z,40.78
2022-10-19T12:48:10.991Z,40.51
2022-10-19T12:51:01.303Z,40.76
2022-10-19T12:53:39.064Z,40.80
2022-10-19T12:56:46.559Z,40.97
2022-10-19T12:59:33.019Z,40.70
2022-10-19T13:02:18.692Z,40.62
2022-10-19T13:04:56.863Z,40.75
2022-10-19T13:07:27.364Z,40.25
2022-10-19T13:10:02.365Z,40.86
2022-10-19T13:12:44.149Z,40.22
2022-10-19T13:15:37.604Z,40.44
2022-10-19T13:18:14.094Z,40.95
2022-10-19T13:20:52.704Z,40.79
2022-10-19T13:23:27.258Z,40.28
2022-10-19T13:26:45.134Z,41.04
2022-10-19T13:29:27.721Z,40.83
2022-10-19T13:32:51.623Z,40.97
2022-10-19T13:35:33.385Z,41.18
2022-10-19T13:38:21.071Z,41.30
2022-10-19T13:40:49.394Z,41.05
2022-10-19T13:43:25.783Z,41.48
2022-10-19T13:46:12.238Z,41.62
2022-10-19T13:49:05.036Z,41.54
2022-10-19T13:51:55.381Z,41.79
2022-10-19T13:54:42.970Z,41.27
2022-10-19T13:57:34.656Z,41.48
2022-10-19T14:00:14.297Z,42.02
2022-10-19T14:03:20.515Z,41.89
2022-10-19T14:06:03.963Z,41.63
2022-10-19T14:08:55.800Z,41.47
2022-10-19T14:11:44.293Z,42.07
2022-10-19T14:14:24.346Z,42.13
2022-10-19T14:17:01.456Z,41.32
2022-10-19T14:19:42.680Z,41.74
2022-10-19T14:22:33.979Z,41.86
2022-10-19T14:25:21.216Z,41.64
2022-10-19T14:28:13.913Z,41.76
2022-10-19T14:30:42.956Z,41.74
2022-10-19T14:33:17.820Z,41.75
2022-10-19T14:35:49.923Z,41.50
2022-10-19T14:38:20.464Z,40.56
2022-10-19T14:40:49.100Z,40.98
2022-10-19T14:43:24.701Z,41.08
2022-10-19T14:46:08.499Z,41.44
2022-10-19T14:48:45.539Z,41.08
2022-10-19T14:51:13.892Z,41.04
2022-10-19T14:54:12.574Z,41.12
2022-10-19T14:56:46.184Z,40.91
2022-10-19T14:59:37.164Z,41.10
2022-10-19T15:02:34.812Z,41.35
2022-10-19T15:05:05.849Z,41.36
2022-10-19T15:07:38.879Z,41.54
2022-10-19T15:10:26.201Z,40.86
2022-10-19T15:13:02.293Z,41.04
2022-10-19T15:15:33.666Z,41.49
2022-10-19T15:18:02.305Z,41.38
2022-10-19T15:20:39.638Z,41.23
2022-10-19T15:23:36.773Z,41.18
2022-10-19T15:26:24.128Z,41.07
2022-10-19T15:28:54.908Z,41.13
2022-10-19T15:31:28.952Z,41.43
2022-10-19T15:33:59.508Z,41.20
2022-10-19T15:36:30.687Z,41.14
2022-10-19T15:39:18.269Z,41.01
2022-10-19T15:41:53.734Z,41.28
2022-10-19T15:44:39.961Z,41.53
2022-10-19T15:47:20.218Z,41.33
2022-10-19T15:49:53.237Z,41.56
2022-10-19T15:52:24.953Z,41.85
2022-10-19T15:54:56.013Z,41.74
2022-10-19T15:57:32.007Z,41.67
2022-10-19T16:00:13.007Z,41.88
2022-10-19T16:02:41.577Z,42.37
2022-10-19T16:05:10.941Z,42.41
2022-10-19T16:07:40.807Z,42.80
2022-10-19T16:10:17.472Z,42.94
2022-10-19T16:12:46.470Z,43.25
2022-10-19T16:15:22.111Z,43.52
2022-10-19T16:17:57.347Z,43.57
2022-10-19T16:20:28.283Z,43.54
2022-10-19T16:22:57.492Z,43.39
2022-10-19T16:25:26.178Z,43.21
2022-10-19T16:27:54.835Z,43.55
2022-10-19T16:30:23.260Z,43.64
2022-10-19T16:32:52.747Z,43.87
2022-10-19T16:35:21.290Z,43.84
2022-10-19T16:37:49.828Z,44.20
2022-10-19T16:40:18.123Z,44.12
2022-10-19T16:42:46.802Z,43.98
2022-10-19T16:45:15.407Z,43.99
2022-10-19T16:47:44.035Z,44.92
2022-10-19T16:50:12.422Z,44.53
2022-10-19T16:52:40.861Z,44.62
2022-10-19T16:55:09.690Z,44.80
2022-10-19T16:57:38.285Z,44.88
2022-10-19T17:00:09.409Z,44.44
2022-10-19T17:02:41.841Z,44.66
2022-10-19T17:05:12.859Z,44.50
2022-10-19T17:07:41.242Z,44.77
2022-10-19T17:10:10.112Z,45.30
2022-10-19T17:12:41.702Z,44.91
2022-10-19T17:15:40.886Z,44.89
2022-10-19T17:17:59.495Z,45.17
2022-10-19T17:20:27.981Z,44.82
2022-10-19T17:22:56.464Z,45.36
2022-10-19T17:25:25.021Z,45.37
2022-10-19T17:27:53.557Z,45.88
2022-10-19T17:30:22.109Z,45.75
2022-10-19T17:32:50.652Z,45.41
2022-10-19T17:35:19.039Z,45.81
2022-10-19T17:37:47.540Z,45.79
2022-10-19T17:40:16.036Z,45.81
2022-10-19T17:42:45.852Z,45.50
2022-10-19T17:45:14.364Z,45.67
2022-10-19T17:47:43.048Z,45.82
2022-10-19T17:50:11.560Z,45.70
2022-10-19T17:52:40.011Z,46.17
2022-10-19T17:55:13.365Z,46.01
2022-10-19T17:57:42.073Z,46.10
2022-10-19T18:00:11.520Z,45.71
2022-10-19T18:02:40.618Z,46.14
2022-10-19T18:05:09.480Z,46.39
2022-10-19T18:07:38.266Z,46.90
2022-10-19T18:10:06.986Z,46.51
2022-10-19T18:12:35.586Z,46.37
2022-10-19T18:15:04.366Z,46.78
2022-10-19T18:17:32.874Z,47.28
2022-10-19T18:20:01.485Z,46.86
2022-10-19T18:22:29.945Z,47.47
2022-10-19T18:24:58.406Z,47.26
2022-10-19T18:27:26.978Z,47.70
2022-10-19T18:29:55.490Z,47.17
2022-10-19T18:32:23.977Z,46.74
2022-10-19T18:34:52.400Z,46.75
2022-10-19T18:37:21.185Z,47.35
2022-10-19T18:39:49.715Z,47.26
2022-10-19T18:42:18.795Z,47.54
2022-10-19T18:44:47.474Z,47.35
2022-10-19T18:47:16.056Z,47.00
2022-10-19T18:49:44.852Z,46.98
2022-10-19T18:52:13.907Z,47.42
2022-10-19T18:54:42.488Z,47.55
2022-10-19T18:57:11.339Z,47.61
2022-10-19T18:59:40.031Z,47.67
2022-10-19T19:02:17.155Z,47.89
2022-10-19T19:04:58.849Z,47.60
2022-10-19T19:07:27.280Z,47.62
2022-10-19T19:09:56.093Z,48.18
2022-10-19T19:12:24.646Z,48.04
2022-10-19T19:14:53.016Z,48.12
2022-10-19T19:17:21.463Z,48.44
2022-10-19T19:19:49.912Z,48.17
2022-10-19T19:22:18.844Z,47.92
2022-10-19T19:24:49.609Z,48.03
2022-10-19T19:27:18.300Z,48.69
2022-10-19T19:29:46.733Z,48.64
2022-10-19T19:32:16.145Z,48.48
2022-10-19T19:34:44.547Z,49.04
2022-10-19T19:37:13.456Z,48.88
2022-10-19T19:39:42.659Z,49.15
2022-10-19T19:42:16.381Z,49.18
2022-10-19T19:44:44.749Z,49.41
2022-10-19T19:47:13.122Z,48.97
2022-10-19T19:49:41.520Z,49.56
2022-10-19T19:52:09.854Z,49.10
2022-10-19T19:54:38.355Z,49.28
2022-10-19T19:57:07.797Z,49.28
2022-10-19T19:59:36.164Z,49.31
2022-10-19T20:02:06.335Z,49.81
2022-10-19T20:04:34.850Z,50.37
2022-10-19T20:07:03.448Z,50.14
2022-10-19T20:09:32.170Z,49.96
2022-10-19T20:12:00.604Z,50.05
2022-10-19T20:14:29.040Z,50.16
2022-10-19T20:16:57.388Z,49.99
2022-10-19T20:19:25.870Z,50.68
2022-10-19T20:21:56.324Z,50.43
2022-10-19T20:24:28.248Z,50.53
2022-10-19T20:26:57.082Z,50.82
2022-10-19T20:29:25.473Z,50.49
2022-10-19T20:31:53.920Z,50.60
2022-10-19T20:34:24.043Z,50.60
2022-10-19T20:36:52.565Z,50.81
2022-10-19T20:39:20.982Z,50.60
2022-10-19T20:41:49.408Z,50.55
2022-10-19T20:44:17.887Z,50.30
2022-10-19T20:46:48.975Z,50.56
2022-10-19T20:49:17.561Z,50.55
2022-10-19T20:51:47.877Z,50.44
2022-10-19T20:54:16.655Z,50.59
2022-10-19T20:56:45.045Z,50.54
2022-10-19T20:59:19.844Z,51.17
2022-10-19T21:01:53.413Z,50.88
2022-10-19T21:04:22.687Z,51.38
2022-10-19T21:06:52.056Z,50.76
2022-10-19T21:09:23.348Z,50.56
2022-10-19T21:11:52.187Z,50.50
2022-10-19T21:14:31.306Z,51.10
2022-10-19T21:17:00.539Z,50.45
2022-10-19T21:19:32.877Z,50.29
2022-10-19T21:22:02.466Z,50.46
2022-10-19T21:24:33.966Z,50.75
2022-10-19T21:27:05.061Z,51.16
2022-10-19T21:29:34.067Z,50.66
2022-10-19T21:32:02.863Z,50.73
2022-10-19T21:34:35.304Z,51.14
2022-10-19T21:37:04.003Z,50.88
2022-10-19T21:39:32.669Z,50.77
2022-10-19T21:42:01.145Z,50.70
2022-10-19T21:44:29.519Z,50.79
2022-10-19T21:46:59.063Z,51.22
2022-10-19T21:49:27.385Z,51.76
2022-10-19T21:51:55.789Z,52.23
2022-10-19T21:54:25.858Z,52.15
2022-10-19T21:56:55.829Z,51.44
2022-10-19T21:59:24.753Z,51.12
2022-10-19T22:01:55.196Z,51.93
2022-10-19T22:04:23.810Z,51.64
2022-10-19T22:06:53.178Z,51.26
2022-10-19T22:09:22.617Z,51.73
2022-10-19T22:11:50.996Z,51.50
2022-10-19T22:14:20.893Z,51.72
2022-10-19T22:16:50.298Z,52.08
2022-10-19T22:19:18.628Z,51.93
2022-10-19T22:21:47.042Z,52.02
2022-10-19T22:24:15.497Z,52.07
2022-10-19T22:26:50.538Z,52.52
2022-10-19T22:29:18.989Z,52.10
2022-10-19T22:31:47.371Z,51.95
2022-10-19T22:34:16.952Z,52.05
2022-10-19T22:36:45.635Z,52.27
2022-10-19T22:39:14.778Z,51.87
2022-10-19T22:42:29.424Z,51.17
2022-10-19T22:44:57.762Z,51.74
2022-10-19T22:47:26.121Z,52.28
2022-10-19T22:49:54.594Z,52.65
2022-10-19T22:52:22.960Z,52.72
2022-10-19T22:54:51.492Z,53.03
2022-10-19T22:57:19.868Z,52.18
2022-10-19T22:59:48.239Z,52.13
2022-10-19T23:02:16.646Z,52.01
2022-10-19T23:04:45.153Z,52.33
2022-10-19T23:07:13.654Z,52.21
2022-10-19T23:09:42.148Z,52.32
2022-10-19T23:12:10.509Z,52.00
2022-10-19T23:14:38.842Z,52.21
2022-10-19T23:17:07.187Z,52.05
2022-10-19T23:19:35.541Z,51.83
2022-10-19T23:22:03.979Z,51.66
2022-10-19T23:24:32.352Z,51.90
2022-10-19T23:27:00.781Z,51.75
2022-10-19T23:29:29.167Z,51.51
2022-10-19T23:31:57.497Z,52.10
2022-10-19T23:34:25.879Z,51.96
2022-10-19T23:36:54.437Z,51.91
2022-10-19T23:39:23.007Z,51.74
2022-10-19T23:41:51.411Z,51.77
2022-10-19T23:44:19.771Z,51.72
2022-10-19T23:46:48.131Z,51.63
2022-10-19T23:49:16.470Z,51.44
2022-10-19T23:51:44.873Z,51.93
2022-10-19T23:54:13.215Z,51.75
2022-10-19T23:56:41.586Z,51.68
2022-10-19T23:59:09.922Z,51.71
